Strona główna
METAR-TAF:

METAR-TAF

Lotnisko :

Port lotniczy Győr-Pér

Győr, Węgry

Szerokość geograficzna: 47-37-28N, Długość geograficzna: 017-48-49E, wysokość: 129 m

Aktualna obserwacja pogody

Raport powstał 50 minut temu, godzina 17:45 UTC
Wiatr 5 kt od południe
Temperatura 2°C
Wilgotność 64%
Ciśnienie 1023 hPa
Widzialność 10 km lub więcej
Brak chmur poniżej 1500 m i brak chmur cumulonimbus

METAR: LHPR 201745Z AUTO 17005KT CAVOK 02/M04 Q1023

czas: 19:35 (18:35 UTC)

Prognoza

Raport powstał 1 godzina i 20 minut temu, godzina 17:15 UTC
Prognoza ważna od 20 godzina 18 UTC do 21 godzina 03 UTC
Wiatr 2 kt z kierunków zmiennych
Widzialność 10 km lub więcej
Brak chmur poniżej 1500 m i brak chmur cumulonimbus
Stopniowe zmiany
od 20 godzina 21 UTC do 20 godzina 24 UTC
Wiatr 10 kt od południe

TAF: LHPR 201715Z 2018/2103 VRB02KT CAVOK BECMG 2021/2024 18010KT

Obserwacja i prognoza pogody dla ponad 4000 lotnisk (raport METAR i TAF).

Dostępne stacje oznaczono żółtymi i czerwonymi punktami na mapie.

Najedź kursorem aby zobaczyć nazwę stacji.

Kliknij aby zobaczyć obserwacje i prognozy pogody.

Aby zmienić mapę: kliknij na zielony przycisk z czarnym krzyżykiem, aby powiększyć; na zielony przycisk z myślnikiem, aby pomniejszyć; na zielone strzałki, aby przejść do map sąsiednich.


METAR-TAF: